Airfield :
LOGIN :

Register | Disclaimer

   EN    FR    IT 

 










Legend :    VFR   Marginal VFR   IFR   Intensive IFR   Very Intensive IFR
Visi :
Ceiling :
>= 8 km
>= 3000ft
5 to 8 km
1000 to 3000 ft
1500m to 5 km
500 to 1000 ft
800 to 1500m
200 to 500 ft
< 800m
< 200 ft
Symbols :   Thunderstorms  Fog  Heavy snow  Heavy precipitations  Wind > 20 kt
SIGMETs :     Misc.  Thunderstorms  Icing  Turbulence  Mountain Waves  Volcanic Ashes






- Airport Elevation : 81 ft
- IATA code : SCS


EGPM - Scatsta

CURRENT METAR :
  • 151250Z AUTO 23004KT 200V260 9999 NCD 04/02 Q0978

EXPIRED METARs :
  • 151220Z AUTO VRB02KT 9999 NCD 04/03 Q0978 TEMPO SHRA BKN014
  • 151150Z AUTO 19004KT 9999 FEW003/// SCT027/// BKN045/// 05/03 Q0977
  • 151120Z AUTO 11004KT 050V160 9999 -RA FEW014/// SCT020/// BKN042/// 03/03 Q0977
  • 151050Z AUTO VRB01KT 9999 FEW022/// SCT041/// 02/01 Q0977
  • 151020Z AUTO VRB01KT 9999 FEW030/// 02/01 Q0977
  • 150950Z AUTO VRB02KT 9999 SCT036/// 03/02 Q0976

TAF TAF EGPM
Valid from the 15 at 12:00 until the 15 at 21:00 UTC


151058Z 1512/1521 14009KT 9999 SCT020
PROB40
TEMPO 1512/1521 6000 SHRA BKN012



MET'MAP, your aeronautical weather chart ! - Copyright ORBIFLY December 2007 - Disclaimer

ORBIFLY MET'MAP TEAM :

Programming & Development : Alexandra Zaïnal
Concept & original design : Baudouin d'Aumeries
Assistance for programming : Marc-Olivier Méhu
Technical & hardware support : Manuel Goepfert

Contact : metmap@orbifly.com




SOURCES & CREDITS :

   NOAA